Boynton Beach, FL

8:05 PM EDT on October 24, 2014 (GMT -0400)
Princeton Place | Change Station
CLOSE
Current Station
Personal Weather Station
Location: Boynton Beach, FL
Elevation: 36 ft
Nearby Weather Stations

Elev 36 ft 26.55 °N, 80.12 °W | Updated 3 seconds ago

Overcast
Overcast
77.5 °F
Feels Like 79 °F
N
1.6
Wind Variable Wind from SW
Gusts 6.9 mph

Today
High -- | Low -- °F
--% Chance of Precip.
Yesterday
High -- | Low -- °F
Precip. -- in
7:24 AM 6:44 PM
New Moon, 1% visible
Pressure 29.84 in
Visibility 10.0 miles
Clouds Mostly Cloudy 2900 ft
Mostly Cloudy 3800 ft
Mostly Cloudy 5500 ft
Heat Index 79 °F
Dew Point 75 °F
Humidity 92%
Rainfall 0.00 in
Snow Depth Not available.
UV 0 out of 12
Pollen 2.30 out of 12
Ozone Good
PM2.5 Good
Flu Activity Local Activity
METAR KPBI 242353Z 01011G20KT 10SM BKN029 BKN038 BKN055 25/19 A2984 RMK AO2 SLP104 T02500194 10272 20250 51004

More Conditions Fewer Conditions

Pressure 29.84 in
Visibility 10.0 miles
Clouds Mostly Cloudy 2900 ft
Mostly Cloudy 3800 ft
Mostly Cloudy 5500 ft
Heat Index 79 °F
Dew Point 75 °F
Humidity 92%
Rainfall 0.00 in
Snow Depth Not available.
UV 0 out of 12
Pollen 2.30 out of 12
Ozone Good
PM2.5 Good
Flu Activity Local Activity
METAR KPBI 242353Z 01011G20KT 10SM BKN029 BKN038 BKN055 25/19 A2984 RMK AO2 SLP104 T02500194 10272 20250 51004

More Conditions Fewer Conditions

Nowcast | as of 6:12 PM EDT on October 24, 2014

Weather conditions will continue to improve across Southeast Florida, with only a few fast-moving light showers affecting the area this evening. Winds will remain breezy out of the northeast at 15 mph with temperatures in the 70s. Marine conditions will remain rough with seas up to 9 ft in the Gulf Stream.

×

10-Day Weather Forecast

Almanac

Astronomy

Oct. 24, 2014 Rise Set
Actual Time 7:24 AM EDT 6:44 PM EDT
Civil Twilight 7:01 AM EDT 7:07 PM EDT
Nautical Twilight 6:34 AM EDT 7:34 PM EDT
Astronomical Twilight 6:07 AM EDT 8:01 PM EDT
Moon 7:59 AM EDT (10/24) 7:27 PM EDT (10/24)
Length of Visible Light 12h 06m
Length of Day
11h 19m
Tomorrow will be 1m 26s shorter.
New Moon, 1% of the Moon is Illuminated
Today
New Moon
Oct 30
First Quarter
Nov 6
Full
Nov 14
Last Quarter
Nov 22
New

Today's Extremes

State Highs State Lows

Community

WunderPhotos

Upload Photos

1,764,721 photos uploaded!

Nearby

Air Quality

  Air Quality AQ Index Pollutant
Yesterday Good
OZONE
Yesterday Good
PM2.5
Current Good
OZONE
Current Good
PM2.5
Friday Good
OZONE
Friday Good
PM2.5
Saturday Good
OZONE
Saturday Good
PM2.5
Sunday Good
OZONE
Sunday Good
PM2.5
Monday Good
OZONE
Monday Good
PM2.5

Snow Depth

Station Depth Elevation
No new snow has been reported.

Earthquake Activity

City Distance Mag. Time & Date
No recent earthquake activity has been reported nearby.
Minimum magnitude displayed is 2.5.

Coastal Water Temperatures

Place Temperature
Lake Worth, FL 79.0 °F
Virginia Key, FL 80.1 °F

Nearby Weather Stations